Time;durP1;ratioP1;P1;durP2;ratioP2;P2;SDS_P1;SDS_P2;PMS_P1;PMS_P2;Temp;Humidity;BMP_temperature;BMP_pressure;BME280_temperature;BME280_humidity;BME280_pressure;Samples;Min_cycle;Max_cycle;Signal;HPM_P1;HPM_P2
2023/09/23 00:02:11;;;;;;;1.73;0.90;;;12.50;99.90;;;;;;4925214;29;20496;-73
2023/09/23 00:04:37;;;;;;;2.53;1.40;;;12.50;99.90;;;;;;4910468;29;20469;-73
2023/09/23 00:07:04;;;;;;;2.70;1.10;;;12.40;99.90;;;;;;4935693;29;20515;-75
2023/09/23 00:09:30;;;;;;;2.40;1.47;;;12.40;99.90;;;;;;4910589;29;20270;-73
2023/09/23 00:11:55;;;;;;;3.20;1.90;;;12.30;99.90;;;;;;4909133;29;20508;-72
2023/09/23 00:14:22;;;;;;;2.47;1.57;;;12.30;99.90;;;;;;4892493;29;20271;-74
2023/09/23 00:16:47;;;;;;;1.83;1.33;;;12.30;99.90;;;;;;4881168;29;20318;-73
2023/09/23 00:19:15;;;;;;;1.93;1.50;;;12.20;99.90;;;;;;4924147;29;20432;-74
2023/09/23 00:21:42;;;;;;;2.10;1.80;;;12.20;99.90;;;;;;4940427;29;20603;-72
2023/09/23 00:24:14;;;;;;;2.03;1.30;;;12.20;99.90;;;;;;4950152;29;20438;-71
2023/09/23 00:26:42;;;;;;;3.07;1.37;;;12.20;99.90;;;;;;4954783;29;20207;-75
2023/09/23 00:29:08;;;;;;;2.60;1.40;;;12.20;99.90;;;;;;4902217;29;20747;-73
2023/09/23 00:31:35;;;;;;;2.10;1.40;;;12.20;99.90;;;;;;4934566;29;20510;-72
2023/09/23 00:34:01;;;;;;;2.00;1.23;;;12.20;99.90;;;;;;4954033;29;20451;-71
2023/09/23 00:36:26;;;;;;;2.03;1.53;;;12.20;99.90;;;;;;4952399;29;20444;-73
2023/09/23 00:38:52;;;;;;;1.73;1.60;;;12.30;99.90;;;;;;4951192;29;20252;-72
2023/09/23 00:41:17;;;;;;;2.43;1.63;;;12.20;99.90;;;;;;4952697;29;20462;-72
2023/09/23 00:43:43;;;;;;;2.30;1.73;;;12.20;99.90;;;;;;4961619;28;20268;-73
2023/09/23 00:46:10;;;;;;;4.13;1.60;;;12.10;99.90;;;;;;4988993;28;20593;-72
2023/09/23 00:48:42;;;;;;;3.40;1.50;;;12.00;99.90;;;;;;4972936;28;20184;-72
2023/09/23 00:51:10;;;;;;;3.70;1.93;;;11.90;99.90;;;;;;4972134;28;20432;-74
2023/09/23 00:53:39;;;;;;;1.80;1.60;;;11.90;99.90;;;;;;4957453;28;20441;-72
2023/09/23 00:56:08;;;;;;;4.13;1.53;;;11.80;99.90;;;;;;4970191;29;20538;-72
2023/09/23 00:58:38;;;;;;;2.00;1.30;;;11.80;99.90;;;;;;4959173;28;20424;-75
2023/09/23 01:01:05;;;;;;;2.70;1.20;;;11.80;99.90;;;;;;4971548;28;20416;-72
2023/09/23 01:03:31;;;;;;;2.33;1.40;;;11.70;99.90;;;;;;4971293;28;20428;-71
2023/09/23 01:06:03;;;;;;;2.00;1.13;;;11.70;99.90;;;;;;4970429;28;20495;-73
2023/09/23 01:08:30;;;;;;;2.33;1.10;;;11.60;99.90;;;;;;4970096;28;20423;-74
2023/09/23 01:10:56;;;;;;;1.20;0.87;;;11.60;99.90;;;;;;4969883;28;20463;-71
2023/09/23 01:13:29;;;;;;;2.30;1.87;;;11.50;99.90;;;;;;4988170;28;20486;-72
2023/09/23 01:15:55;;;;;;;2.00;1.50;;;11.40;99.90;;;;;;4977234;28;20456;-71
2023/09/23 01:18:23;;;;;;;3.20;1.47;;;11.40;99.90;;;;;;4955478;28;20419;-73
2023/09/23 01:20:49;;;;;;;2.73;1.50;;;11.40;99.90;;;;;;4989901;28;20684;-72
2023/09/23 01:23:15;;;;;;;2.20;1.60;;;11.50;99.90;;;;;;4987934;28;20480;-73
2023/09/23 01:25:41;;;;;;;1.53;1.33;;;11.60;99.90;;;;;;4966880;28;20484;-71
2023/09/23 01:28:13;;;;;;;2.33;1.33;;;11.70;99.90;;;;;;4933353;29;20441;-71
2023/09/23 01:30:40;;;;;;;1.40;1.20;;;11.80;99.90;;;;;;4981724;28;20512;-71
2023/09/23 01:33:10;;;;;;;1.97;1.20;;;11.90;99.90;;;;;;4971188;28;20886;-72
2023/09/23 01:35:36;;;;;;;1.00;0.90;;;11.90;99.90;;;;;;4971594;28;20426;-73
2023/09/23 01:38:03;;;;;;;1.97;1.20;;;11.90;99.90;;;;;;4988026;28;20447;-71
2023/09/23 01:40:31;;;;;;;2.93;1.10;;;11.90;99.90;;;;;;4970117;28;20419;-72
2023/09/23 01:43:01;;;;;;;2.13;1.40;;;11.90;99.90;;;;;;4970478;28;20458;-71
2023/09/23 01:45:28;;;;;;;1.73;1.43;;;11.90;99.90;;;;;;4988188;28;20457;-72
2023/09/23 01:47:57;;;;;;;3.33;2.23;;;12.00;99.90;;;;;;4985977;28;20705;-73
2023/09/23 01:50:24;;;;;;;2.87;2.03;;;12.00;99.90;;;;;;4968562;28;20729;-71
2023/09/23 01:52:51;;;;;;;2.80;1.93;;;11.90;99.90;;;;;;4987975;28;20419;-72
2023/09/23 01:55:17;;;;;;;2.60;2.33;;;11.90;99.90;;;;;;4968313;28;21026;-72
2023/09/23 01:57:43;;;;;;;2.80;1.80;;;11.80;99.90;;;;;;5002817;28;20439;-72
2023/09/23 02:00:17;;;;;;;2.27;2.07;;;11.70;99.90;;;;;;4965672;29;20417;-70
2023/09/23 02:02:48;;;;;;;3.40;1.50;;;11.70;99.90;;;;;;4966830;29;20514;-72
2023/09/23 02:05:18;;;;;;;2.97;2.00;;;11.60;99.90;;;;;;4969735;28;20424;-71
2023/09/23 02:07:46;;;;;;;2.53;1.80;;;11.50;99.90;;;;;;4953523;28;20491;-71
2023/09/23 02:10:11;;;;;;;2.17;1.67;;;11.40;99.90;;;;;;4987499;28;20456;-73
2023/09/23 02:12:37;;;;;;;1.70;1.30;;;11.40;99.90;;;;;;4942477;28;20459;-72
2023/09/23 02:15:04;;;;;;;2.00;1.50;;;11.40;99.90;;;;;;4987096;28;20212;-74
2023/09/23 02:17:30;;;;;;;3.07;1.63;;;11.30;99.90;;;;;;4987382;28;20219;-72
2023/09/23 02:19:56;;;;;;;1.70;1.40;;;11.20;99.90;;;;;;4985601;28;20435;-73
2023/09/23 02:22:22;;;;;;;2.60;1.20;;;11.20;99.90;;;;;;4968709;28;20433;-72
2023/09/23 02:24:49;;;;;;;1.47;1.27;;;11.20;99.90;;;;;;4953291;28;20466;-72
2023/09/23 02:27:16;;;;;;;2.93;1.53;;;11.20;99.90;;;;;;4969407;28;20284;-73
2023/09/23 02:29:42;;;;;;;2.90;1.77;;;11.20;99.90;;;;;;4968561;28;20747;-71
2023/09/23 02:32:08;;;;;;;2.33;1.67;;;11.30;99.90;;;;;;4985783;28;20408;-72
2023/09/23 02:34:36;;;;;;;3.30;1.80;;;11.30;99.90;;;;;;4984527;28;20428;-71
2023/09/23 02:37:02;;;;;;;4.17;1.83;;;11.30;99.90;;;;;;4953118;28;20244;-72
2023/09/23 02:39:28;;;;;;;2.30;1.67;;;11.30;99.90;;;;;;4986316;28;20442;-72
2023/09/23 02:41:54;;;;;;;2.53;1.67;;;11.30;99.90;;;;;;4958614;28;20192;-71
2023/09/23 02:44:22;;;;;;;2.83;1.77;;;11.30;99.90;;;;;;4968618;28;20463;-72
2023/09/23 02:46:49;;;;;;;2.73;1.50;;;11.20;99.90;;;;;;4946402;29;20240;-72
2023/09/23 02:49:15;;;;;;;3.53;1.30;;;11.20;99.90;;;;;;4948799;29;20625;-71
2023/09/23 02:51:44;;;;;;;4.40;1.63;;;11.20;99.90;;;;;;4966137;29;20417;-72
2023/09/23 02:54:11;;;;;;;3.27;2.03;;;11.20;99.90;;;;;;4968076;29;20448;-69
2023/09/23 02:56:37;;;;;;;5.13;2.17;;;11.10;99.90;;;;;;4962584;29;20448;-71
2023/09/23 02:59:11;;;;;;;2.50;1.47;;;11.10;99.90;;;;;;4944917;29;20431;-71
2023/09/23 03:01:39;;;;;;;1.77;1.20;;;11.10;99.90;;;;;;4952407;29;20611;-70
2023/09/23 03:04:16;;;;;;;4.53;1.73;;;11.10;99.90;;;;;;4965317;29;20453;-71
2023/09/23 03:06:49;;;;;;;2.53;1.67;;;11.10;99.90;;;;;;4947934;29;20529;-72
2023/09/23 03:09:25;;;;;;;2.33;1.40;;;11.00;99.90;;;;;;4963348;29;20484;-71
2023/09/23 03:11:55;;;;;;;3.97;2.23;;;11.00;99.90;;;;;;4962604;29;20527;-72
2023/09/23 03:14:23;;;;;;;3.63;2.20;;;11.00;99.90;;;;;;4944833;29;20449;-73
2023/09/23 03:16:54;;;;;;;1.90;1.30;;;11.00;99.90;;;;;;4946017;29;20429;-72
2023/09/23 03:19:27;;;;;;;4.17;2.50;;;11.00;99.90;;;;;;4971396;29;20405;-75
2023/09/23 03:21:57;;;;;;;2.00;1.60;;;11.00;99.90;;;;;;4956926;29;20549;-71
2023/09/23 03:24:28;;;;;;;3.10;1.50;;;10.90;99.90;;;;;;4964037;29;20468;-72
2023/09/23 03:27:00;;;;;;;1.90;1.23;;;10.90;99.90;;;;;;4948285;29;20572;-72
2023/09/23 03:29:30;;;;;;;1.77;1.17;;;10.90;99.90;;;;;;4964927;29;20841;-71
2023/09/23 03:31:58;;;;;;;1.80;1.20;;;10.80;99.90;;;;;;4949079;29;20425;-71
2023/09/23 03:34:25;;;;;;;3.40;1.70;;;10.80;99.90;;;;;;4962440;29;20444;-71
2023/09/23 03:36:53;;;;;;;3.10;1.43;;;10.80;99.90;;;;;;4963234;29;20412;-72
2023/09/23 03:39:19;;;;;;;4.20;1.30;;;10.80;99.90;;;;;;4965639;29;20567;-71
2023/09/23 03:41:46;;;;;;;3.00;1.17;;;10.80;99.90;;;;;;4963950;29;20431;-72
2023/09/23 03:44:16;;;;;;;1.90;1.30;;;10.70;99.90;;;;;;4926139;29;20465;-71
2023/09/23 03:46:47;;;;;;;2.03;1.10;;;10.70;99.90;;;;;;4949140;29;20684;-72
2023/09/23 03:49:12;;;;;;;4.30;1.87;;;10.70;99.90;;;;;;4946658;29;20473;-72
2023/09/23 03:51:38;;;;;;;4.73;1.50;;;10.70;99.90;;;;;;4946809;29;20422;-71
2023/09/23 03:54:05;;;;;;;2.03;1.37;;;10.60;99.90;;;;;;4945800;29;20672;-71
2023/09/23 03:56:33;;;;;;;3.03;1.40;;;10.60;99.90;;;;;;4945238;29;20453;-71
2023/09/23 03:59:06;;;;;;;2.50;1.30;;;10.60;99.90;;;;;;4945590;29;20461;-69
2023/09/23 04:01:39;;;;;;;1.77;1.00;;;10.60;99.90;;;;;;4946333;29;20422;-70
2023/09/23 04:04:06;;;;;;;2.90;1.40;;;10.50;99.90;;;;;;4941143;29;20446;-69
2023/09/23 04:06:33;;;;;;;1.20;0.80;;;10.50;99.90;;;;;;4939557;29;20670;-70
2023/09/23 04:08:59;;;;;;;2.10;1.07;;;10.40;99.90;;;;;;4940095;29;20429;-71
2023/09/23 04:11:26;;;;;;;3.03;1.23;;;10.40;99.90;;;;;;4939248;29;20658;-70
2023/09/23 04:13:52;;;;;;;2.00;1.47;;;10.40;99.90;;;;;;4938192;29;20480;-71
2023/09/23 04:16:19;;;;;;;1.83;1.50;;;10.40;99.90;;;;;;4940735;29;20833;-70
2023/09/23 04:18:47;;;;;;;2.30;1.37;;;10.40;99.90;;;;;;4940005;29;20508;-70
2023/09/23 04:21:13;;;;;;;5.13;1.87;;;10.40;99.90;;;;;;4940490;29;20426;-71
2023/09/23 04:23:39;;;;;;;3.33;1.77;;;10.50;99.90;;;;;;4943751;29;20516;-70
2023/09/23 04:26:05;;;;;;;3.63;1.73;;;10.40;99.90;;;;;;4952067;29;20257;-70
2023/09/23 04:28:31;;;;;;;2.50;1.20;;;10.40;99.90;;;;;;4949710;29;20268;-71
2023/09/23 04:30:57;;;;;;;2.23;1.47;;;10.40;99.90;;;;;;4952687;29;20865;-71
2023/09/23 04:33:26;;;;;;;4.70;1.90;;;10.40;99.90;;;;;;4950848;29;20471;-70
2023/09/23 04:35:51;;;;;;;2.73;1.70;;;10.40;99.90;;;;;;4942000;29;20758;-71
2023/09/23 04:38:17;;;;;;;2.80;1.70;;;10.40;99.90;;;;;;4940642;29;20520;-71
2023/09/23 04:40:43;;;;;;;1.80;1.60;;;10.40;99.90;;;;;;4939969;29;20210;-71
2023/09/23 04:43:12;;;;;;;4.53;2.10;;;10.40;99.90;;;;;;4940539;29;20448;-71
2023/09/23 04:45:37;;;;;;;3.30;2.07;;;10.40;99.90;;;;;;4976959;28;20299;-71
2023/09/23 04:48:06;;;;;;;2.50;1.80;;;10.40;99.90;;;;;;4978876;28;20450;-72
2023/09/23 04:50:31;;;;;;;4.47;2.03;;;10.40;99.90;;;;;;4978915;28;20746;-71
2023/09/23 04:52:59;;;;;;;2.70;1.87;;;10.40;99.90;;;;;;4978459;28;20707;-71
2023/09/23 04:55:25;;;;;;;2.47;1.40;;;10.40;99.90;;;;;;4978336;28;20196;-72
2023/09/23 04:57:51;;;;;;;1.93;1.60;;;10.40;99.90;;;;;;4977954;28;20416;-72
2023/09/23 05:00:18;;;;;;;2.50;1.50;;;10.40;99.90;;;;;;4979227;28;20438;-71
2023/09/23 05:02:49;;;;;;;2.50;1.33;;;10.30;99.90;;;;;;4978635;28;20568;-71
2023/09/23 05:05:20;;;;;;;2.40;1.47;;;10.30;99.90;;;;;;4978401;28;20909;-71
2023/09/23 05:07:46;;;;;;;1.83;1.40;;;10.40;99.90;;;;;;4978455;28;20420;-72
2023/09/23 05:10:12;;;;;;;3.37;2.10;;;10.40;99.90;;;;;;4978967;28;20490;-71
2023/09/23 05:12:39;;;;;;;3.57;2.00;;;10.30;99.90;;;;;;4978531;28;20401;-71
2023/09/23 05:15:06;;;;;;;3.10;1.80;;;10.40;99.90;;;;;;4978273;28;20927;-71
2023/09/23 05:17:31;;;;;;;1.50;1.20;;;10.40;99.90;;;;;;4978311;28;20518;-71
2023/09/23 05:19:58;;;;;;;3.70;1.70;;;10.40;99.90;;;;;;4960132;28;20455;-71
2023/09/23 05:22:26;;;;;;;3.40;1.70;;;10.50;99.90;;;;;;4976925;28;20200;-71
2023/09/23 05:24:57;;;;;;;3.87;1.80;;;10.50;99.90;;;;;;4977981;28;20780;-70
2023/09/23 05:27:23;;;;;;;3.13;1.43;;;10.60;99.90;;;;;;4977601;28;20638;-73
2023/09/23 05:29:50;;;;;;;5.43;1.90;;;10.70;99.90;;;;;;4978192;28;20467;-71
2023/09/23 05:32:16;;;;;;;2.00;1.20;;;10.70;99.90;;;;;;4978206;28;20188;-71
2023/09/23 05:34:42;;;;;;;3.83;1.83;;;10.80;99.90;;;;;;4977386;28;21929;-70
2023/09/23 05:37:11;;;;;;;2.10;1.30;;;10.80;99.90;;;;;;4977421;28;20254;-73
2023/09/23 05:39:37;;;;;;;2.10;1.23;;;10.80;99.90;;;;;;4977633;28;20526;-71
2023/09/23 05:42:04;;;;;;;6.37;1.83;;;10.80;99.90;;;;;;4984556;28;20437;-73
2023/09/23 05:44:29;;;;;;;4.07;1.80;;;10.80;99.90;;;;;;4982694;28;20554;-71
2023/09/23 05:46:55;;;;;;;3.07;1.63;;;10.80;99.90;;;;;;4978138;28;20404;-72
2023/09/23 05:49:20;;;;;;;3.10;1.70;;;10.80;99.90;;;;;;4978807;28;20224;-71
2023/09/23 05:51:47;;;;;;;3.60;2.00;;;10.80;99.90;;;;;;4978465;28;20347;-70
2023/09/23 05:54:12;;;;;;;5.40;1.90;;;10.80;99.90;;;;;;4960875;28;20213;-71
2023/09/23 05:56:38;;;;;;;4.07;2.10;;;10.80;99.90;;;;;;4977006;28;20443;-71
2023/09/23 05:59:05;;;;;;;3.43;2.10;;;10.80;99.90;;;;;;4977857;28;21479;-71
2023/09/23 06:01:31;;;;;;;4.00;1.70;;;10.80;99.90;;;;;;4983194;28;20330;-72
2023/09/23 06:03:58;;;;;;;2.60;1.50;;;10.80;99.90;;;;;;4985179;28;20734;-74
2023/09/23 06:06:23;;;;;;;4.23;1.73;;;10.80;99.90;;;;;;4950376;29;20428;-71
2023/09/23 06:08:50;;;;;;;4.80;2.13;;;10.80;99.90;;;;;;4967303;28;20412;-72
2023/09/23 06:11:16;;;;;;;2.27;1.80;;;10.90;99.90;;;;;;4996534;28;20204;-72
2023/09/23 06:13:42;;;;;;;2.60;1.73;;;10.90;99.90;;;;;;4952919;28;20444;-72
2023/09/23 06:16:08;;;;;;;5.40;1.87;;;10.90;99.90;;;;;;5005524;28;20411;-71
2023/09/23 06:18:33;;;;;;;2.80;1.90;;;11.00;99.90;;;;;;4987094;28;20192;-74
2023/09/23 06:21:00;;;;;;;3.87;1.87;;;11.00;99.90;;;;;;4986824;28;20211;-72
2023/09/23 06:23:26;;;;;;;3.00;2.03;;;11.00;99.90;;;;;;4969102;28;20248;-72
2023/09/23 06:26:02;;;;;;;4.23;1.70;;;11.00;99.90;;;;;;4973545;28;20429;-73
2023/09/23 06:28:30;;;;;;;3.23;1.73;;;11.10;99.90;;;;;;4994029;28;20184;-71
2023/09/23 06:30:57;;;;;;;2.97;1.50;;;11.10;99.90;;;;;;4984893;28;20460;-72
2023/09/23 06:33:23;;;;;;;3.40;1.70;;;11.20;99.90;;;;;;4987597;28;20438;-72
2023/09/23 06:35:49;;;;;;;2.50;1.63;;;11.20;99.90;;;;;;4969547;28;20788;-71
2023/09/23 06:38:15;;;;;;;2.30;1.50;;;11.30;99.90;;;;;;4971271;28;20225;-73
2023/09/23 06:40:41;;;;;;;2.90;1.53;;;11.40;99.90;;;;;;4971998;28;20241;-73
2023/09/23 06:43:07;;;;;;;5.60;2.00;;;11.50;99.90;;;;;;4972120;28;20440;-72
2023/09/23 06:45:33;;;;;;;2.80;1.53;;;11.60;99.90;;;;;;4951324;29;20233;-71
2023/09/23 06:47:59;;;;;;;4.10;1.97;;;11.60;99.90;;;;;;4929731;29;20239;-74
2023/09/23 06:50:25;;;;;;;2.33;1.30;;;11.70;99.90;;;;;;4895328;29;20460;-73
2023/09/23 06:52:51;;;;;;;2.60;1.70;;;11.80;99.90;;;;;;4910234;29;20273;-71
2023/09/23 06:55:17;;;;;;;3.17;1.60;;;11.80;99.90;;;;;;4894138;29;20274;-72
2023/09/23 06:57:43;;;;;;;3.07;1.70;;;11.90;99.90;;;;;;4893309;29;20871;-73
2023/09/23 07:00:09;;;;;;;1.70;1.40;;;12.00;99.90;;;;;;4910077;29;20187;-72
2023/09/23 07:02:36;;;;;;;3.77;1.43;;;12.20;99.90;;;;;;4909616;29;20198;-73
2023/09/23 07:05:02;;;;;;;1.90;1.40;;;12.30;99.90;;;;;;4896101;29;20497;-73
2023/09/23 07:07:29;;;;;;;2.07;1.17;;;12.40;99.90;;;;;;4908121;29;20434;-73
2023/09/23 07:09:54;;;;;;;2.67;1.30;;;12.50;99.90;;;;;;4893426;29;20478;-72
2023/09/23 07:12:22;;;;;;;3.90;1.93;;;12.50;99.90;;;;;;4889779;29;20441;-74
2023/09/23 07:14:49;;;;;;;2.23;1.53;;;12.60;99.90;;;;;;4896644;29;20225;-73
2023/09/23 07:17:14;;;;;;;3.20;1.20;;;12.70;99.90;;;;;;4907036;29;20431;-72
2023/09/23 07:19:40;;;;;;;2.00;0.93;;;12.80;99.90;;;;;;4938946;29;20423;-73
2023/09/23 07:22:06;;;;;;;2.07;1.07;;;13.00;99.90;;;;;;4948799;29;20201;-73
2023/09/23 07:24:35;;;;;;;4.13;1.37;;;13.10;99.90;;;;;;4950445;29;20206;-73
2023/09/23 07:27:02;;;;;;;3.23;2.20;;;13.20;99.90;;;;;;4938261;29;20431;-73
2023/09/23 07:29:27;;;;;;;3.77;1.90;;;13.20;99.90;;;;;;4934784;29;20825;-72
2023/09/23 07:31:53;;;;;;;4.27;1.80;;;13.30;99.90;;;;;;4936343;29;20169;-72
2023/09/23 07:34:19;;;;;;;3.03;1.43;;;13.30;99.90;;;;;;4936153;29;20210;-74
2023/09/23 07:36:45;;;;;;;2.97;1.53;;;13.40;99.90;;;;;;4936746;29;20433;-73
2023/09/23 07:39:11;;;;;;;3.73;1.87;;;13.40;99.90;;;;;;4935698;29;20421;-74
2023/09/23 07:41:37;;;;;;;4.50;2.40;;;13.50;99.90;;;;;;4947336;29;20447;-71
2023/09/23 07:44:03;;;;;;;3.87;2.10;;;13.50;99.90;;;;;;4943577;29;20232;-73
2023/09/23 07:46:30;;;;;;;4.17;2.13;;;13.60;99.90;;;;;;4973108;29;20421;-74
2023/09/23 07:48:56;;;;;;;3.43;2.03;;;13.60;99.90;;;;;;4977066;29;20487;-73
2023/09/23 07:51:21;;;;;;;4.13;1.60;;;13.70;99.90;;;;;;4957796;29;20424;-71
2023/09/23 07:53:47;;;;;;;4.70;2.00;;;13.80;99.90;;;;;;4954071;29;20446;-73
2023/09/23 07:56:13;;;;;;;4.87;2.40;;;13.90;99.90;;;;;;4955024;29;20181;-73
2023/09/23 07:58:38;;;;;;;3.40;1.77;;;14.00;99.90;;;;;;4964043;29;20177;-75
2023/09/23 08:01:04;;;;;;;7.43;2.07;;;14.00;99.90;;;;;;4973748;29;20273;-73
2023/09/23 08:03:31;;;;;;;3.03;1.53;;;14.10;99.90;;;;;;4970822;28;20216;-73
2023/09/23 08:05:56;;;;;;;5.13;1.63;;;14.30;99.90;;;;;;4971750;29;20185;-74
2023/09/23 08:08:22;;;;;;;4.30;1.43;;;14.40;99.90;;;;;;4971742;29;20439;-73
2023/09/23 08:10:49;;;;;;;3.33;1.40;;;14.50;99.90;;;;;;4969489;29;21798;-72
2023/09/23 08:13:19;;;;;;;3.73;1.63;;;14.50;99.90;;;;;;4978684;28;20212;-71
2023/09/23 08:15:45;;;;;;;4.60;1.50;;;14.70;99.90;;;;;;4968173;29;20514;-73
2023/09/23 08:18:12;;;;;;;3.03;1.30;;;14.80;99.90;;;;;;4966581;29;20496;-74
2023/09/23 08:20:39;;;;;;;4.53;1.30;;;15.00;99.90;;;;;;4931415;29;20431;-73
2023/09/23 08:23:06;;;;;;;2.67;1.37;;;15.10;99.90;;;;;;4929990;29;20898;-74
2023/09/23 08:25:32;;;;;;;2.57;1.50;;;15.30;99.90;;;;;;4945029;29;20497;-75
2023/09/23 08:27:58;;;;;;;2.60;1.47;;;15.40;99.90;;;;;;4942823;29;20507;-72
2023/09/23 08:30:24;;;;;;;4.70;1.20;;;15.50;99.90;;;;;;4949274;29;21119;-72
2023/09/23 08:32:50;;;;;;;3.67;1.53;;;15.60;99.90;;;;;;4949346;29;20170;-74
2023/09/23 08:35:15;;;;;;;2.70;1.37;;;15.70;99.90;;;;;;4932995;29;20944;-72
2023/09/23 08:37:41;;;;;;;2.53;1.30;;;15.80;99.90;;;;;;4933457;29;20205;-72
2023/09/23 08:40:11;;;;;;;4.30;1.80;;;16.10;99.90;;;;;;4934445;29;20186;-73
2023/09/23 08:42:40;;;;;;;2.97;1.60;;;16.30;99.90;;;;;;4934571;29;20286;-73
2023/09/23 08:45:09;;;;;;;4.30;1.30;;;16.50;99.90;;;;;;4935993;29;20468;-73
2023/09/23 08:47:37;;;;;;;3.07;1.20;;;16.70;99.90;;;;;;4943944;29;20430;-73
2023/09/23 08:50:10;;;;;;;2.30;1.47;;;17.00;99.90;;;;;;4900523;29;20451;-72
2023/09/23 08:52:43;;;;;;;2.03;1.20;;;17.10;99.90;;;;;;4949038;29;20434;-75
2023/09/23 08:55:11;;;;;;;1.93;1.40;;;17.40;98.90;;;;;;4936322;29;20416;-73
2023/09/23 08:57:38;;;;;;;3.30;1.20;;;17.50;97.90;;;;;;4944133;29;20438;-74
2023/09/23 09:00:08;;;;;;;3.33;1.50;;;17.60;96.00;;;;;;4937649;29;20481;-73
2023/09/23 09:02:35;;;;;;;3.20;1.50;;;17.60;92.50;;;;;;4945678;29;20499;-74
2023/09/23 09:05:01;;;;;;;1.73;1.03;;;17.60;93.10;;;;;;4954503;29;20445;-75
2023/09/23 09:07:37;;;;;;;2.27;1.03;;;17.50;92.70;;;;;;4985930;28;20190;-73
2023/09/23 09:10:06;;;;;;;2.30;1.23;;;17.60;92.40;;;;;;4995587;28;20216;-74
2023/09/23 09:12:33;;;;;;;2.40;1.27;;;17.50;91.40;;;;;;4952062;29;20425;-73
2023/09/23 09:14:59;;;;;;;3.80;1.77;;;17.40;91.00;;;;;;4956806;29;20440;-74
2023/09/23 09:17:27;;;;;;;3.80;1.53;;;17.30;90.10;;;;;;4974656;29;20418;-75
2023/09/23 09:19:54;;;;;;;6.00;1.60;;;17.10;90.00;;;;;;4974569;28;20416;-73
2023/09/23 09:22:19;;;;;;;2.97;1.20;;;16.90;91.60;;;;;;4975685;29;20406;-73
2023/09/23 09:24:48;;;;;;;6.00;1.37;;;16.90;92.30;;;;;;4975929;28;20451;-73
2023/09/23 09:27:14;;;;;;;2.80;1.40;;;16.90;91.80;;;;;;4976163;28;20185;-76
2023/09/23 09:29:41;;;;;;;6.17;1.30;;;17.10;92.20;;;;;;4976051;28;20467;-74
2023/09/23 09:32:10;;;;;;;2.40;1.63;;;17.40;91.50;;;;;;4975923;28;20410;-75
2023/09/23 09:34:51;;;;;;;3.93;1.23;;;17.60;88.80;;;;;;4996082;28;20442;-75
2023/09/23 09:37:32;;;;;;;4.63;1.20;;;17.50;86.20;;;;;;4979262;28;20427;-75
2023/09/23 09:40:02;;;;;;;2.90;1.30;;;17.50;84.40;;;;;;4994383;28;20464;-75
2023/09/23 09:42:30;;;;;;;3.70;1.10;;;17.30;85.00;;;;;;4957584;29;20425;-74
2023/09/23 09:44:57;;;;;;;4.93;1.83;;;17.10;82.90;;;;;;4944290;29;20836;-76
2023/09/23 09:47:23;;;;;;;3.30;1.67;;;16.70;84.50;;;;;;4924337;29;20459;-75
2023/09/23 09:49:54;;;;;;;3.23;2.03;;;16.50;87.10;;;;;;4952788;29;20491;-75
2023/09/23 09:52:26;;;;;;;5.70;1.97;;;16.60;89.20;;;;;;4953984;29;20425;-74
2023/09/23 09:54:56;;;;;;;3.10;1.57;;;16.70;90.40;;;;;;4937073;29;20481;-75
2023/09/23 09:57:23;;;;;;;2.60;1.17;;;16.70;90.20;;;;;;4922737;29;20446;-74
2023/09/23 09:59:52;;;;;;;3.60;1.20;;;16.80;90.20;;;;;;4903870;29;20425;-75
2023/09/23 10:02:18;;;;;;;4.03;1.57;;;17.00;87.50;;;;;;4904992;29;20436;-75
2023/09/23 10:04:49;;;;;;;2.00;1.20;;;17.20;87.50;;;;;;4945595;29;20447;-74
2023/09/23 10:07:22;;;;;;;2.53;1.47;;;17.30;83.20;;;;;;4930190;29;20191;-75
2023/09/23 10:09:55;;;;;;;2.33;1.00;;;17.50;84.20;;;;;;4914271;29;20923;-75
2023/09/23 10:12:31;;;;;;;2.83;1.30;;;17.80;82.90;;;;;;4930792;29;20429;-76
2023/09/23 10:14:58;;;;;;;5.10;1.83;;;18.00;80.70;;;;;;4902368;29;20445;-74
2023/09/23 10:17:31;;;;;;;3.77;1.47;;;18.00;79.10;;;;;;4901305;29;20579;-75
2023/09/23 10:19:57;;;;;;;4.43;1.73;;;17.90;79.00;;;;;;4913362;29;20429;-74
2023/09/23 10:22:30;;;;;;;4.77;1.27;;;17.60;77.60;;;;;;4914049;29;20424;-75
2023/09/23 10:25:08;;;;;;;3.37;1.33;;;17.40;77.60;;;;;;4919094;29;20501;-75
2023/09/23 10:27:39;;;;;;;3.00;1.10;;;17.20;76.20;;;;;;4952016;29;20434;-74
2023/09/23 10:30:08;;;;;;;3.50;1.13;;;17.20;76.80;;;;;;4936160;29;20543;-74
2023/09/23 10:32:35;;;;;;;4.23;1.17;;;17.10;77.90;;;;;;4955014;29;20473;-75
2023/09/23 10:35:01;;;;;;;2.63;1.17;;;17.20;77.70;;;;;;4953639;29;20444;-75
2023/09/23 10:37:35;;;;;;;3.20;1.27;;;17.30;78.00;;;;;;4956796;28;20165;-76
2023/09/23 10:40:15;;;;;;;4.23;1.83;;;17.40;76.80;;;;;;4957307;29;20423;-75
2023/09/23 10:42:42;;;;;;;1.80;1.20;;;17.50;75.70;;;;;;4956321;29;20413;-76
2023/09/23 10:45:09;;;;;;;5.80;2.43;;;17.40;75.90;;;;;;4966143;29;20470;-76
2023/09/23 10:47:37;;;;;;;2.30;1.30;;;17.30;76.20;;;;;;4973918;29;20490;-75
2023/09/23 10:50:10;;;;;;;3.40;1.50;;;17.30;76.00;;;;;;4992277;28;20532;-75
2023/09/23 10:52:38;;;;;;;4.33;1.10;;;17.10;77.10;;;;;;4995916;28;20407;-75
2023/09/23 10:55:27;;;;;;;3.43;1.27;;;16.90;78.40;;;;;;4956122;29;20438;-76
2023/09/23 10:57:55;;;;;;;3.00;1.93;;;17.00;78.90;;;;;;4976019;29;20426;-75
2023/09/23 11:00:24;;;;;;;2.53;1.30;;;17.30;78.70;;;;;;4988945;28;20403;-75
2023/09/23 11:02:55;;;;;;;6.00;2.20;;;17.50;76.70;;;;;;4995526;28;20482;-76
2023/09/23 11:05:22;;;;;;;3.70;2.27;;;17.60;74.90;;;;;;4997320;28;20406;-76
2023/09/23 11:07:56;;;;;;;5.93;2.00;;;17.50;74.80;;;;;;4997038;28;20409;-77
2023/09/23 11:10:59;;;;;;;8.80;1.47;;;17.50;74.60;;;;;;4980385;28;20709;-76
2023/09/23 11:13:37;;;;;;;3.00;1.80;;;17.40;73.90;;;;;;5089102;23;20472;-76
2023/09/23 11:16:09;;;;;;;3.37;1.80;;;17.10;75.30;;;;;;5032837;28;20434;-77
2023/09/23 11:18:42;;;;;;;3.50;1.73;;;17.10;75.70;;;;;;5017111;28;20447;-76
2023/09/23 11:35:14;;;;;;;3.00;1.90;;;17.10;70.80;;;;;;5224845;23;20539;-76
2023/09/23 11:37:53;;;;;;;3.20;1.10;;;17.00;69.20;;;;;;4977245;28;20449;-76
2023/09/23 11:40:25;;;;;;;1.63;1.03;;;17.00;69.90;;;;;;4962042;28;20400;-76
2023/09/23 11:42:51;;;;;;;2.90;1.40;;;17.00;69.80;;;;;;4944896;28;20440;-76
2023/09/23 11:45:17;;;;;;;1.70;1.13;;;17.00;68.60;;;;;;4995171;28;20434;-76
2023/09/23 11:47:46;;;;;;;3.33;1.57;;;17.00;67.30;;;;;;4994254;28;20414;-75
2023/09/23 11:50:15;;;;;;;5.10;1.40;;;17.10;68.10;;;;;;4977652;28;20463;-76
2023/09/23 11:52:42;;;;;;;2.87;1.37;;;17.20;67.90;;;;;;4979191;28;20430;-76
2023/09/23 11:55:13;;;;;;;3.67;1.70;;;17.50;68.30;;;;;;4994772;28;20395;-77
2023/09/23 11:57:44;;;;;;;2.50;1.87;;;17.70;66.10;;;;;;4926709;29;20428;-75
2023/09/23 12:00:11;;;;;;;2.93;1.63;;;18.00;65.60;;;;;;4924618;29;20417;-75
2023/09/23 12:02:41;;;;;;;2.90;1.57;;;18.20;63.90;;;;;;4904909;29;20440;-75
2023/09/23 12:05:20;;;;;;;3.03;1.80;;;18.30;63.40;;;;;;4924012;28;20434;-75
2023/09/23 12:07:47;;;;;;;3.40;1.90;;;18.30;62.50;;;;;;4925179;29;20424;-76
2023/09/23 12:10:14;;;;;;;2.70;2.03;;;18.20;61.70;;;;;;4957801;28;20466;-75
2023/09/23 12:12:40;;;;;;;2.20;1.97;;;18.20;62.50;;;;;;4959570;28;20428;-76
2023/09/23 12:15:08;;;;;;;5.40;2.63;;;18.20;63.20;;;;;;4964088;28;20183;-75
2023/09/23 12:17:39;;;;;;;3.83;2.80;;;18.30;62.20;;;;;;4977569;28;20438;-76
2023/09/23 12:20:11;;;;;;;2.87;2.47;;;18.20;62.30;;;;;;4966201;28;20455;-75
2023/09/23 12:22:38;;;;;;;3.20;2.90;;;18.20;62.30;;;;;;4950939;28;20451;-76
2023/09/23 12:25:07;;;;;;;2.93;2.63;;;18.40;62.30;;;;;;4965746;28;20419;-75
2023/09/23 12:27:47;;;;;;;3.03;2.73;;;18.50;62.10;;;;;;4967939;28;20462;-76
2023/09/23 12:30:17;;;;;;;3.53;3.17;;;18.80;61.10;;;;;;4998101;28;20507;-76
2023/09/23 12:35:19;;;;;;;3.90;3.00;;;19.10;59.30;;;;;;4962021;28;20476;-74
2023/09/23 12:37:45;;;;;;;6.20;3.87;;;19.20;59.10;;;;;;4945161;29;20441;-75
2023/09/23 12:40:11;;;;;;;2.80;2.60;;;19.10;59.00;;;;;;4942555;29;20242;-77
2023/09/23 12:45:33;;;;;;;3.53;3.00;;;19.00;59.20;;;;;;4986922;23;20552;-75
2023/09/23 12:47:59;;;;;;;4.20;3.10;;;18.90;59.40;;;;;;4980602;29;20372;-77
2023/09/23 12:50:25;;;;;;;3.30;2.77;;;18.80;59.80;;;;;;4945504;29;20201;-75
2023/09/23 12:55:24;;;;;;;3.83;3.00;;;19.00;59.90;;;;;;5130456;23;20456;-75
2023/09/23 12:57:52;;;;;;;3.87;2.80;;;19.00;60.00;;;;;;5092197;23;20975;-77
2023/09/23 13:00:20;;;;;;;3.30;2.47;;;18.90;59.60;;;;;;4945218;29;20589;-75
2023/09/23 13:03:03;;;;;;;3.50;3.07;;;18.70;59.90;;;;;;4960310;28;20425;-76
2023/09/23 13:05:29;;;;;;;2.73;2.53;;;18.60;60.50;;;;;;4961114;29;20430;-78
2023/09/23 13:07:56;;;;;;;5.07;3.33;;;18.40;60.70;;;;;;4961056;29;20446;-76
2023/09/23 13:10:22;;;;;;;3.70;3.20;;;18.10;61.40;;;;;;5801189;23;20427;-77
2023/09/23 13:12:52;;;;;;;4.50;3.47;;;17.90;62.70;;;;;;4981327;28;20240;-76
2023/09/23 13:15:48;;;;;;;4.53;3.33;;;17.80;63.30;;;;;;5222965;23;20228;-77